createdAt,value
2023-06-09T00:02:01.754Z,26.05
2023-06-09T00:04:13.850Z,25.78
2023-06-09T00:06:25.863Z,25.94
2023-06-09T00:08:37.957Z,24.98
2023-06-09T00:10:50.021Z,26.16
2023-06-09T00:13:02.144Z,25.67
2023-06-09T00:15:14.193Z,25.78
2023-06-09T00:17:26.349Z,25.67
2023-06-09T00:19:38.377Z,25.78
2023-06-09T00:21:50.441Z,25.78
2023-06-09T00:24:02.588Z,25.67
2023-06-09T00:26:14.585Z,25.94
2023-06-09T00:28:26.676Z,25.46
2023-06-09T00:30:40.500Z,26.16
2023-06-09T00:32:51.176Z,25.83
2023-06-09T00:35:04.408Z,26.26
2023-06-09T00:37:16.256Z,26.05
2023-06-09T00:39:28.360Z,26.53
2023-06-09T00:41:40.449Z,25.83
2023-06-09T00:43:52.504Z,26.80
2023-06-09T00:46:04.617Z,26.53
2023-06-09T00:48:16.681Z,26.64
2023-06-09T00:50:28.762Z,26.48
2023-06-09T00:52:40.825Z,26.91
2023-06-09T00:54:52.911Z,27.12
2023-06-09T00:57:06.532Z,26.53
2023-06-09T00:59:18.564Z,26.53
2023-06-09T01:01:30.748Z,26.91
2023-06-09T01:03:42.764Z,26.86
2023-06-09T01:05:54.793Z,26.64
2023-06-09T01:08:07.812Z,26.86
2023-06-09T01:10:20.011Z,27.02
2023-06-09T01:12:33.082Z,26.59
2023-06-09T01:14:45.157Z,26.86
2023-06-09T01:16:57.308Z,26.86
2023-06-09T01:19:09.377Z,27.02
2023-06-09T01:21:21.444Z,26.86
2023-06-09T01:23:33.549Z,26.96
2023-06-09T01:25:45.607Z,27.02
2023-06-09T01:27:57.690Z,26.96
2023-06-09T01:30:09.796Z,26.86
2023-06-09T01:32:21.987Z,26.96
2023-06-09T01:34:33.928Z,27.12
2023-06-09T01:36:45.992Z,26.53
2023-06-09T01:38:58.077Z,27.02
2023-06-09T01:41:11.161Z,26.75
2023-06-09T01:43:23.239Z,27.07
2023-06-09T01:45:35.309Z,26.96
2023-06-09T01:47:47.417Z,26.86
2023-06-09T01:49:59.476Z,27.02
2023-06-09T01:52:11.575Z,26.96
2023-06-09T01:54:23.628Z,27.12
2023-06-09T01:56:35.698Z,26.91
2023-06-09T01:58:47.785Z,27.12
2023-06-09T02:01:00.850Z,27.07
2023-06-09T02:03:13.070Z,27.07
2023-06-09T02:05:25.016Z,26.64
2023-06-09T02:07:37.098Z,26.96
2023-06-09T02:09:49.167Z,27.07
2023-06-09T02:12:01.255Z,26.96
2023-06-09T02:14:13.354Z,27.23
2023-06-09T02:16:26.492Z,27.07
2023-06-09T02:18:38.467Z,26.96
2023-06-09T02:20:51.540Z,23.31
2023-06-09T02:23:02.631Z,6.50
2023-06-09T02:25:15.729Z,13.75
2023-06-09T02:27:27.789Z,8.06
2023-06-09T02:29:39.875Z,13.96
2023-06-09T02:31:51.970Z,16.87
2023-06-09T02:34:05.013Z,26.69
2023-06-09T02:36:17.119Z,25.94
2023-06-09T02:38:30.159Z,26.16
2023-06-09T02:40:42.235Z,26.59
2023-06-09T02:42:54.325Z,26.10
2023-06-09T02:45:06.655Z,26.37
2023-06-09T02:47:19.499Z,17.40
2023-06-09T02:49:31.621Z,23.96
2023-06-09T02:51:43.651Z,21.54
2023-06-09T02:53:55.731Z,22.34
2023-06-09T02:56:07.809Z,23.63
2023-06-09T02:58:19.940Z,22.29
2023-06-09T03:00:33.738Z,23.69
2023-06-09T03:02:44.107Z,21.05
2023-06-09T03:04:57.150Z,23.04
2023-06-09T03:07:09.238Z,20.20
2023-06-09T03:09:21.351Z,22.61
2023-06-09T03:11:34.348Z,21.38
2023-06-09T03:13:45.528Z,22.50
2023-06-09T03:15:57.607Z,23.31
2023-06-09T03:18:11.319Z,21.54
2023-06-09T03:20:21.802Z,23.47
2023-06-09T03:22:34.854Z,24.76
2023-06-09T03:24:46.935Z,24.22
2023-06-09T03:26:59.021Z,22.56
2023-06-09T03:29:11.396Z,21.70
2023-06-09T03:31:23.534Z,24.44
2023-06-09T03:33:35.563Z,25.41
2023-06-09T03:35:48.518Z,24.87
2023-06-09T03:37:59.709Z,27.02
2023-06-09T03:40:11.790Z,27.12
2023-06-09T03:42:23.890Z,27.07
2023-06-09T03:44:36.001Z,27.02
2023-06-09T03:46:48.143Z,27.07
2023-06-09T03:49:00.183Z,27.12
2023-06-09T03:51:12.253Z,26.69
2023-06-09T03:53:24.349Z,24.49
2023-06-09T03:55:43.449Z,22.61
2023-06-09T03:58:00.558Z,18.05
2023-06-09T04:00:12.588Z,25.78
2023-06-09T04:02:26.339Z,26.91
2023-06-09T04:04:38.370Z,26.80
2023-06-09T04:06:50.348Z,26.96
2023-06-09T04:09:04.922Z,26.91
2023-06-09T04:11:18.507Z,27.23
2023-06-09T04:13:32.109Z,27.12
2023-06-09T04:15:47.694Z,27.02
2023-06-09T04:18:03.346Z,27.12
2023-06-09T04:20:15.377Z,27.12
2023-06-09T04:22:28.409Z,26.96
2023-06-09T04:24:40.542Z,26.91
2023-06-09T04:26:53.623Z,27.07
2023-06-09T04:29:06.660Z,27.18
2023-06-09T04:31:18.746Z,26.80
2023-06-09T04:33:30.812Z,27.23
2023-06-09T04:35:42.887Z,27.23
2023-06-09T04:37:54.997Z,27.07
2023-06-09T04:40:07.293Z,27.23
2023-06-09T04:42:19.141Z,27.07
2023-06-09T04:44:31.215Z,27.23
2023-06-09T04:46:43.360Z,27.18
2023-06-09T04:48:55.410Z,26.91
2023-06-09T04:51:07.465Z,27.12
2023-06-09T04:53:19.550Z,27.12
2023-06-09T04:55:31.628Z,27.23
2023-06-09T04:57:43.706Z,27.07
2023-06-09T04:59:55.833Z,27.18
2023-06-09T05:02:08.036Z,27.18
2023-06-09T05:04:20.000Z,27.07
2023-06-09T05:06:32.080Z,27.12
2023-06-09T05:08:44.197Z,27.18
2023-06-09T05:10:56.297Z,27.18
2023-06-09T05:13:09.900Z,27.07
2023-06-09T05:15:27.994Z,27.07
2023-06-09T05:17:46.107Z,27.23
2023-06-09T05:20:01.659Z,27.12
2023-06-09T05:22:17.578Z,27.07
2023-06-09T05:24:36.686Z,27.12
2023-06-09T05:26:52.366Z,27.23
2023-06-09T05:29:06.900Z,27.18
2023-06-09T05:31:18.946Z,27.07
2023-06-09T05:33:31.033Z,27.18
2023-06-09T05:35:43.099Z,27.18
2023-06-09T05:37:55.323Z,27.18
2023-06-09T05:40:07.440Z,27.07
2023-06-09T05:42:19.341Z,27.18
2023-06-09T05:44:31.452Z,27.02
2023-06-09T05:46:43.526Z,26.91
2023-06-09T05:48:55.603Z,26.86
2023-06-09T05:51:07.684Z,27.02
2023-06-09T05:53:19.753Z,26.91
2023-06-09T05:55:31.882Z,27.12
2023-06-09T05:57:43.906Z,26.86
2023-06-09T05:59:56.005Z,25.03
2023-06-09T06:02:08.129Z,14.50
2023-06-09T06:04:20.179Z,11.92
2023-06-09T06:06:32.235Z,11.39
2023-06-09T06:08:44.484Z,10.10
2023-06-09T06:10:56.409Z,9.08
2023-06-09T06:13:09.383Z,9.18
2023-06-09T06:15:20.581Z,8.06
2023-06-09T06:17:32.800Z,7.25
2023-06-09T06:19:44.781Z,6.82
2023-06-09T06:21:56.840Z,7.41
2023-06-09T06:24:08.948Z,6.82
2023-06-09T06:26:21.045Z,5.75
2023-06-09T06:28:33.150Z,4.83
2023-06-09T06:30:45.207Z,5.32
2023-06-09T06:32:57.324Z,5.05
2023-06-09T06:35:09.374Z,4.40
2023-06-09T06:37:22.469Z,4.83
2023-06-09T06:39:34.620Z,5.16
2023-06-09T06:41:46.627Z,5.69
2023-06-09T06:43:59.685Z,4.35
2023-06-09T06:46:11.770Z,4.89
2023-06-09T06:48:23.855Z,5.75
2023-06-09T06:50:35.978Z,4.83
2023-06-09T06:52:47.991Z,4.57
2023-06-09T06:55:00.180Z,5.16
2023-06-09T06:57:12.180Z,5.42
2023-06-09T06:59:24.267Z,5.64
2023-06-09T07:01:36.426Z,5.42
2023-06-09T07:03:48.456Z,5.80
2023-06-09T07:06:01.493Z,6.12
2023-06-09T07:08:13.634Z,6.55
2023-06-09T07:10:25.674Z,6.23
2023-06-09T07:12:37.792Z,6.12
2023-06-09T07:14:50.818Z,5.69
2023-06-09T07:17:02.963Z,5.80
2023-06-09T07:19:14.985Z,5.16
2023-06-09T07:21:28.055Z,3.44
2023-06-09T07:23:40.233Z,2.63
2023-06-09T07:25:52.236Z,2.63
2023-06-09T07:28:04.294Z,2.69
2023-06-09T07:30:16.353Z,2.63
2023-06-09T07:32:28.449Z,2.69
2023-06-09T07:34:40.564Z,2.63
2023-06-09T07:36:52.590Z,2.63
2023-06-09T07:39:04.666Z,2.63
2023-06-09T07:41:16.739Z,2.63
2023-06-09T07:43:28.813Z,2.74
2023-06-09T07:45:40.932Z,2.69
2023-06-09T07:47:53.071Z,2.69
2023-06-09T07:50:05.236Z,2.63
2023-06-09T07:52:24.477Z,2.69
2023-06-09T07:54:31.172Z,2.69
2023-06-09T07:56:47.179Z,2.74
2023-06-09T07:58:54.393Z,2.58
2023-06-09T08:01:07.466Z,2.69
2023-06-09T08:03:19.736Z,2.69
2023-06-09T08:05:33.735Z,2.42
2023-06-09T08:07:44.712Z,2.63
2023-06-09T08:09:56.762Z,2.69
2023-06-09T08:12:08.871Z,2.63
2023-06-09T08:14:20.927Z,2.69
2023-06-09T08:16:33.075Z,2.63
2023-06-09T08:18:45.109Z,2.63
2023-06-09T08:20:57.149Z,2.63
2023-06-09T08:23:09.265Z,2.69
2023-06-09T08:25:21.334Z,2.58
2023-06-09T08:27:33.422Z,2.63
2023-06-09T08:29:45.529Z,2.63
2023-06-09T08:31:57.609Z,2.63
2023-06-09T08:34:09.653Z,2.69
2023-06-09T08:36:25.237Z,2.69
2023-06-09T08:38:37.356Z,2.63
2023-06-09T08:40:49.453Z,2.69
2023-06-09T08:43:01.496Z,2.63
2023-06-09T08:45:13.614Z,2.63
2023-06-09T08:47:25.774Z,2.69
2023-06-09T08:49:37.756Z,2.74
2023-06-09T08:51:50.888Z,2.63
2023-06-09T08:54:02.895Z,2.52
2023-06-09T08:56:15.975Z,2.63
2023-06-09T08:58:28.062Z,2.69
2023-06-09T09:00:40.113Z,2.63
2023-06-09T09:02:52.301Z,2.69
2023-06-09T09:05:04.300Z,2.69
2023-06-09T09:07:16.371Z,2.69
2023-06-09T09:09:30.479Z,2.74
2023-06-09T09:11:42.762Z,2.63
2023-06-09T09:13:54.600Z,2.69
2023-06-09T09:16:06.072Z,2.69
2023-06-09T09:18:18.053Z,2.69
2023-06-09T09:20:30.138Z,2.74
2023-06-09T09:22:42.224Z,2.69
2023-06-09T09:24:54.328Z,2.63
2023-06-09T09:27:06.382Z,2.69
2023-06-09T09:29:18.482Z,2.63
2023-06-09T09:31:30.720Z,2.58
2023-06-09T09:33:42.659Z,2.63
2023-06-09T09:35:54.885Z,2.69
2023-06-09T09:38:06.818Z,2.69
2023-06-09T09:40:19.886Z,2.63
2023-06-09T09:42:31.972Z,2.69
2023-06-09T09:44:44.433Z,2.63
2023-06-09T09:46:57.179Z,2.63
2023-06-09T09:49:09.167Z,2.63
2023-06-09T09:51:21.283Z,2.69
2023-06-09T09:53:33.309Z,2.63
2023-06-09T09:55:45.418Z,2.69
2023-06-09T09:57:57.531Z,2.69
2023-06-09T10:00:09.983Z,2.63
2023-06-09T10:02:21.719Z,2.69
2023-06-09T10:04:34.022Z,2.69
2023-06-09T10:06:46.109Z,2.69
2023-06-09T10:08:58.202Z,2.69
2023-06-09T10:11:10.252Z,2.74
2023-06-09T10:13:22.326Z,2.69
2023-06-09T10:15:34.390Z,2.69
2023-06-09T10:17:46.548Z,2.69
2023-06-09T10:19:58.613Z,2.69
2023-06-09T10:22:10.676Z,2.58
2023-06-09T10:24:22.889Z,2.69
2023-06-09T10:26:34.802Z,2.69
2023-06-09T10:28:46.892Z,2.63
2023-06-09T10:30:59.047Z,2.69
2023-06-09T10:33:12.135Z,2.63
2023-06-09T10:35:25.147Z,2.74
2023-06-09T10:37:37.234Z,2.74
2023-06-09T10:39:49.315Z,2.63
2023-06-09T10:42:01.397Z,2.47
2023-06-09T10:44:13.472Z,2.69
2023-06-09T10:46:25.583Z,2.63
2023-06-09T10:48:37.668Z,2.69
2023-06-09T10:50:49.774Z,2.69
2023-06-09T10:53:02.872Z,2.69
2023-06-09T10:55:16.839Z,2.74
2023-06-09T10:57:28.016Z,2.69
2023-06-09T10:59:41.105Z,2.52
2023-06-09T11:01:53.311Z,2.69
2023-06-09T11:04:06.527Z,2.63
2023-06-09T11:06:18.553Z,2.74
2023-06-09T11:08:31.624Z,2.69
2023-06-09T11:10:45.813Z,2.63
2023-06-09T11:12:55.797Z,2.69
2023-06-09T11:15:08.072Z,2.74
2023-06-09T11:17:22.587Z,2.69
2023-06-09T11:19:44.078Z,2.69
2023-06-09T11:21:56.194Z,2.74
2023-06-09T11:24:08.352Z,2.74
2023-06-09T11:26:20.432Z,2.74
2023-06-09T11:28:33.481Z,2.74
2023-06-09T11:30:45.693Z,2.79
2023-06-09T11:32:57.812Z,2.63
2023-06-09T11:35:10.125Z,2.69
2023-06-09T11:37:25.697Z,2.74
2023-06-09T11:39:37.803Z,2.74
2023-06-09T11:41:49.835Z,2.74
2023-06-09T11:44:01.945Z,2.63
2023-06-09T11:46:14.134Z,2.74
2023-06-09T11:48:27.111Z,2.52
2023-06-09T11:50:39.152Z,2.63
2023-06-09T11:52:51.250Z,2.69
2023-06-09T11:55:03.304Z,2.69
2023-06-09T11:57:15.390Z,2.69
2023-06-09T11:59:41.315Z,2.69
2023-06-09T12:01:39.858Z,2.69
2023-06-09T12:03:51.962Z,2.69
2023-06-09T12:06:04.098Z,2.69
2023-06-09T12:08:16.614Z,2.74
2023-06-09T12:10:28.193Z,2.69
2023-06-09T12:12:40.253Z,2.74
2023-06-09T12:14:52.370Z,2.74
2023-06-09T12:17:04.437Z,2.69
2023-06-09T12:19:16.503Z,2.69
2023-06-09T12:21:28.588Z,2.63
2023-06-09T12:23:40.668Z,2.69
2023-06-09T12:25:52.725Z,2.63
2023-06-09T12:28:05.792Z,2.69
2023-06-09T12:30:17.869Z,2.74
2023-06-09T12:32:30.029Z,2.69
2023-06-09T12:34:42.023Z,2.74
2023-06-09T12:36:54.119Z,2.63
2023-06-09T12:39:06.250Z,2.69
2023-06-09T12:41:18.291Z,2.63
2023-06-09T12:43:30.410Z,2.63
2023-06-09T12:45:42.457Z,2.63
2023-06-09T12:47:55.607Z,2.74
2023-06-09T12:50:07.864Z,2.63
2023-06-09T12:52:19.690Z,2.69
2023-06-09T12:54:31.774Z,2.52
2023-06-09T12:56:43.848Z,2.47
2023-06-09T12:58:55.934Z,2.69
2023-06-09T13:01:08.067Z,2.69
2023-06-09T13:03:20.229Z,2.69
2023-06-09T13:05:32.224Z,2.69
2023-06-09T13:07:44.261Z,2.63
2023-06-09T13:09:56.337Z,2.63
2023-06-09T13:12:09.444Z,2.63
2023-06-09T13:14:20.820Z,2.69
2023-06-09T13:16:32.992Z,2.69
2023-06-09T13:18:44.983Z,2.69
2023-06-09T13:20:57.066Z,2.52
2023-06-09T13:23:09.149Z,2.69
2023-06-09T13:25:21.233Z,2.69
2023-06-09T13:27:33.312Z,2.63
2023-06-09T13:29:46.763Z,2.63
2023-06-09T13:31:58.444Z,2.69
2023-06-09T13:34:10.538Z,2.74
2023-06-09T13:36:22.631Z,2.69
2023-06-09T13:38:34.732Z,2.63
2023-06-09T13:40:46.848Z,2.69
2023-06-09T13:42:58.882Z,2.47
2023-06-09T13:45:11.055Z,2.52
2023-06-09T13:47:23.036Z,2.69
2023-06-09T13:49:35.231Z,2.58
2023-06-09T13:51:47.232Z,2.74
2023-06-09T13:53:59.277Z,2.69
2023-06-09T13:56:11.423Z,2.69
2023-06-09T13:58:23.457Z,2.69
2023-06-09T14:00:35.570Z,2.63
2023-06-09T14:02:47.926Z,2.69
2023-06-09T14:04:59.836Z,2.63
2023-06-09T14:07:11.837Z,2.69
2023-06-09T14:09:23.968Z,2.74
2023-06-09T14:11:36.067Z,2.69
2023-06-09T14:13:48.128Z,2.63
2023-06-09T14:16:00.216Z,2.69
2023-06-09T14:18:12.384Z,2.74
2023-06-09T14:20:24.361Z,2.47
2023-06-09T14:22:36.472Z,2.47
2023-06-09T14:24:48.525Z,2.63
2023-06-09T14:27:00.619Z,2.69
2023-06-09T14:29:13.680Z,2.74
2023-06-09T14:31:25.819Z,2.74
2023-06-09T14:33:38.842Z,2.63
2023-06-09T14:35:50.930Z,2.69
2023-06-09T14:38:02.994Z,2.63
2023-06-09T14:40:15.087Z,2.69
2023-06-09T14:42:27.152Z,2.63
2023-06-09T14:44:39.269Z,2.58
2023-06-09T14:46:51.326Z,2.69
2023-06-09T14:49:03.407Z,2.63
2023-06-09T14:51:15.486Z,2.42
2023-06-09T14:53:27.581Z,2.58
2023-06-09T14:55:39.694Z,2.69
2023-06-09T14:57:52.731Z,2.42
2023-06-09T15:00:07.120Z,2.63
2023-06-09T15:02:17.889Z,2.74
2023-06-09T15:04:30.959Z,2.63
2023-06-09T15:06:43.359Z,2.52
2023-06-09T15:08:55.110Z,2.69
2023-06-09T15:12:13.301Z,2.63
2023-06-09T15:14:25.389Z,2.69
2023-06-09T15:16:37.781Z,2.74
2023-06-09T15:18:49.849Z,2.63
2023-06-09T15:21:03.431Z,2.52
2023-06-09T15:23:15.025Z,2.63
2023-06-09T15:25:27.079Z,2.58
2023-06-09T15:27:40.120Z,2.74
2023-06-09T15:29:52.215Z,2.42
2023-06-09T15:32:04.306Z,2.63
2023-06-09T15:34:16.393Z,2.47
2023-06-09T15:36:29.435Z,2.63
2023-06-09T15:38:41.569Z,2.36
2023-06-09T15:40:53.711Z,2.47
2023-06-09T15:43:06.803Z,2.47
2023-06-09T15:45:19.851Z,2.36
2023-06-09T15:47:32.095Z,2.69
2023-06-09T15:49:43.972Z,2.42
2023-06-09T15:51:57.240Z,2.42
2023-06-09T15:54:09.365Z,2.47
2023-06-09T15:56:21.530Z,2.69
2023-06-09T15:58:33.496Z,2.69
2023-06-09T16:00:45.638Z,2.47
2023-06-09T16:02:57.747Z,2.63
2023-06-09T16:05:09.993Z,2.63
2023-06-09T16:06:09.718Z,2.52
2023-06-09T16:08:21.801Z,2.74
2023-06-09T16:10:33.907Z,2.63
2023-06-09T16:12:45.996Z,2.47
2023-06-09T16:14:58.054Z,2.52
2023-06-09T16:17:10.580Z,2.74
2023-06-09T16:19:22.548Z,2.63
2023-06-09T16:21:34.637Z,2.52
2023-06-09T16:23:46.807Z,2.52
2023-06-09T16:25:58.773Z,2.74
2023-06-09T16:28:10.982Z,2.69
2023-06-09T16:30:22.920Z,2.52
2023-06-09T16:32:35.328Z,2.47
2023-06-09T16:34:47.410Z,2.47
2023-06-09T16:36:59.478Z,2.69
2023-06-09T16:39:11.537Z,2.69
2023-06-09T16:41:23.617Z,2.58
2023-06-09T16:43:35.710Z,2.74
2023-06-09T16:45:48.797Z,2.58
2023-06-09T16:48:00.979Z,2.47
2023-06-09T16:50:12.906Z,2.47
2023-06-09T16:52:24.996Z,2.74
2023-06-09T16:54:38.067Z,2.79
2023-06-09T16:56:50.149Z,2.69
2023-06-09T16:59:02.214Z,2.69
2023-06-09T17:01:14.313Z,2.69
2023-06-09T17:03:26.473Z,2.69
2023-06-09T17:05:38.674Z,2.63
2023-06-09T17:06:38.532Z,2.63
2023-06-09T17:08:50.601Z,2.69
2023-06-09T17:11:03.682Z,2.69
2023-06-09T17:13:15.812Z,2.58
2023-06-09T17:15:28.734Z,2.69
2023-06-09T17:17:40.026Z,2.69
2023-06-09T17:18:39.942Z,2.63
2023-06-09T17:20:51.990Z,2.69
2023-06-09T17:23:05.072Z,2.52
2023-06-09T17:25:17.131Z,2.69
2023-06-09T17:27:29.814Z,2.74
2023-06-09T17:29:42.858Z,2.74
2023-06-09T17:31:58.454Z,2.52
2023-06-09T17:34:10.511Z,2.69
2023-06-09T17:36:22.537Z,2.58
2023-06-09T17:38:34.632Z,2.79
2023-06-09T17:40:46.734Z,2.69
2023-06-09T17:42:58.778Z,2.52
2023-06-09T17:45:12.466Z,2.69
2023-06-09T17:47:24.938Z,2.52
2023-06-09T17:49:37.002Z,3.60
2023-06-09T17:51:49.110Z,3.87
2023-06-09T17:54:02.144Z,4.83
2023-06-09T17:56:17.742Z,2.63
2023-06-09T17:58:31.356Z,2.63
2023-06-09T18:00:46.915Z,2.63
2023-06-09T18:03:02.581Z,2.79
2023-06-09T18:05:16.066Z,2.58
2023-06-09T18:07:28.160Z,2.58
2023-06-09T18:09:41.786Z,2.63
2023-06-09T18:11:54.817Z,2.74
2023-06-09T18:14:10.467Z,2.63
2023-06-09T18:16:26.199Z,2.58
2023-06-09T18:18:41.608Z,2.58
2023-06-09T18:21:02.284Z,2.74
2023-06-09T18:23:13.779Z,2.79
2023-06-09T18:25:26.401Z,2.85
2023-06-09T18:27:42.539Z,2.58
2023-06-09T18:29:58.576Z,2.69
2023-06-09T18:32:59.681Z,2.69
2023-06-09T18:34:31.254Z,2.63
2023-06-09T18:36:46.820Z,2.63
2023-06-09T18:39:08.295Z,2.69
2023-06-09T18:41:16.012Z,2.74
2023-06-09T18:43:29.552Z,2.52
2023-06-09T18:45:43.252Z,2.63
2023-06-09T18:47:58.772Z,2.74
2023-06-09T18:50:20.351Z,2.69
2023-06-09T18:52:51.892Z,2.52
2023-06-09T18:54:49.540Z,2.52
2023-06-09T18:57:05.037Z,2.42
2023-06-09T18:59:13.114Z,2.58
2023-06-09T19:01:27.724Z,2.69
2023-06-09T19:03:41.299Z,2.74
2023-06-09T19:06:01.286Z,2.58
2023-06-09T19:08:10.415Z,2.79
2023-06-09T19:10:26.018Z,2.90
2023-06-09T19:12:38.074Z,2.63
2023-06-09T19:14:50.196Z,2.74
2023-06-09T19:17:05.794Z,2.52
2023-06-09T19:19:19.309Z,2.69
2023-06-09T19:21:36.079Z,2.63
2023-06-09T19:23:46.564Z,2.52
2023-06-09T19:25:58.585Z,2.58
2023-06-09T19:28:12.729Z,2.69
2023-06-09T19:30:27.881Z,2.63
2023-06-09T19:32:43.375Z,2.58
2023-06-09T19:34:56.426Z,2.69
2023-06-09T19:37:22.088Z,2.69
2023-06-09T19:39:29.691Z,2.69
2023-06-09T19:44:55.118Z,2.63
2023-06-09T19:54:41.145Z,2.63
2023-06-09T19:56:31.086Z,2.58
2023-06-09T19:58:48.219Z,2.47
2023-06-09T20:00:58.760Z,2.74
2023-06-09T20:03:18.422Z,2.52
2023-06-09T20:05:27.391Z,2.52
2023-06-09T20:07:45.480Z,2.63
2023-06-09T20:10:01.086Z,2.69
2023-06-09T20:12:19.152Z,2.58
2023-06-09T20:14:34.758Z,2.52
2023-06-09T20:16:52.997Z,2.52
2023-06-09T20:19:08.517Z,2.52
2023-06-09T20:21:24.138Z,2.52
2023-06-09T20:23:36.126Z,2.63
2023-06-09T20:25:48.192Z,2.69
2023-06-09T20:28:00.311Z,2.63
2023-06-09T20:30:12.354Z,2.63
2023-06-09T20:32:24.613Z,2.36
2023-06-09T20:34:36.501Z,2.58
2023-06-09T20:36:48.581Z,2.47
2023-06-09T20:39:00.702Z,2.85
2023-06-09T20:41:12.775Z,2.69
2023-06-09T20:43:25.808Z,2.58
2023-06-09T20:45:37.884Z,2.79
2023-06-09T20:47:50.967Z,2.69
2023-06-09T20:50:02.058Z,2.69
2023-06-09T20:52:14.134Z,2.85
2023-06-09T20:54:26.213Z,2.63
2023-06-09T20:56:38.294Z,2.58
2023-06-09T20:58:50.354Z,2.52
2023-06-09T21:01:02.519Z,2.52
2023-06-09T21:03:14.579Z,2.63
2023-06-09T21:05:27.581Z,2.58
2023-06-09T21:07:38.763Z,2.63
2023-06-09T21:09:50.781Z,2.36
2023-06-09T21:12:03.921Z,2.52
2023-06-09T21:14:15.937Z,2.74
2023-06-09T21:16:28.138Z,2.58
2023-06-09T21:18:40.083Z,2.69
2023-06-09T21:20:52.241Z,4.08
2023-06-09T21:23:04.347Z,4.46
2023-06-09T21:25:16.363Z,4.46
2023-06-09T21:27:28.456Z,4.83
2023-06-09T21:29:40.525Z,5.80
2023-06-09T21:31:53.736Z,6.88
2023-06-09T21:34:05.694Z,6.71
2023-06-09T21:36:17.751Z,7.09
2023-06-09T21:38:29.843Z,7.36
2023-06-09T21:40:42.910Z,7.30
2023-06-09T21:42:55.012Z,7.95
2023-06-09T21:45:08.303Z,10.80
2023-06-09T21:47:20.199Z,11.23
2023-06-09T21:49:32.229Z,11.76
2023-06-09T21:51:44.325Z,12.78
2023-06-09T21:53:56.420Z,13.05
2023-06-09T21:56:08.545Z,13.75
2023-06-09T21:58:22.158Z,13.70
2023-06-09T22:00:33.676Z,13.96
2023-06-09T22:02:45.776Z,14.66
2023-06-09T22:04:57.817Z,21.22
2023-06-09T22:07:09.936Z,16.60
2023-06-09T22:09:22.007Z,18.48
2023-06-09T22:11:34.082Z,19.17
2023-06-09T22:13:46.162Z,20.84
2023-06-09T22:15:58.243Z,20.68
2023-06-09T22:18:10.401Z,21.59
2023-06-09T22:20:22.420Z,20.25
2023-06-09T22:22:34.500Z,26.26
2023-06-09T22:24:46.613Z,27.18
2023-06-09T22:27:01.276Z,27.07
2023-06-09T22:29:10.765Z,27.12
2023-06-09T22:31:22.847Z,27.23
2023-06-09T22:33:35.790Z,27.07
2023-06-09T22:35:46.974Z,27.12
2023-06-09T22:37:59.075Z,27.02
2023-06-09T22:40:13.622Z,27.02
2023-06-09T22:42:24.742Z,26.59
2023-06-09T22:44:36.822Z,27.18
2023-06-09T22:46:49.233Z,27.07
2023-06-09T22:49:01.266Z,27.29
2023-06-09T22:51:13.371Z,27.29
2023-06-09T22:53:26.917Z,26.86
2023-06-09T22:55:40.022Z,27.18
2023-06-09T22:57:53.075Z,26.96
2023-06-09T23:00:05.165Z,27.02
2023-06-09T23:02:17.274Z,26.96
2023-06-09T23:04:29.326Z,26.96
2023-06-09T23:06:42.901Z,27.07
2023-06-09T23:08:54.978Z,27.18
2023-06-09T23:11:07.122Z,27.12
2023-06-09T23:13:19.154Z,27.07
2023-06-09T23:15:31.220Z,27.02
2023-06-09T23:17:43.333Z,26.96
2023-06-09T23:19:55.386Z,26.96
2023-06-09T23:22:07.455Z,27.02
2023-06-09T23:24:21.144Z,27.18
2023-06-09T23:26:33.145Z,27.07
2023-06-09T23:28:45.182Z,27.02
2023-06-09T23:30:57.280Z,27.02
2023-06-09T23:33:09.446Z,27.23
2023-06-09T23:35:21.449Z,27.02
2023-06-09T23:37:33.504Z,27.18
2023-06-09T23:39:45.592Z,27.07
2023-06-09T23:41:57.678Z,27.02
2023-06-09T23:44:11.240Z,26.91
2023-06-09T23:46:24.294Z,27.12
2023-06-09T23:48:35.767Z,26.91
2023-06-09T23:50:47.787Z,27.18
2023-06-09T23:52:59.879Z,27.07
2023-06-09T23:55:12.261Z,27.02
2023-06-09T23:57:24.047Z,26.96
2023-06-09T23:59:36.140Z,27.02
